sensor_id;sensor_type;location;lat;lon;timestamp;temperature;humidity
360;DHT22;168;48.872;9.226;2023-08-20T00:01:51;24.20;88.60
360;DHT22;168;48.872;9.226;2023-08-20T00:04:27;24.10;88.50
360;DHT22;168;48.872;9.226;2023-08-20T00:07:01;24.10;88.30
360;DHT22;168;48.872;9.226;2023-08-20T00:09:37;24.00;88.10
360;DHT22;168;48.872;9.226;2023-08-20T00:12:10;24.00;88.00
360;DHT22;168;48.872;9.226;2023-08-20T00:14:57;24.00;88.10
360;DHT22;168;48.872;9.226;2023-08-20T00:17:34;24.00;87.90
360;DHT22;168;48.872;9.226;2023-08-20T00:20:05;23.90;87.70
360;DHT22;168;48.872;9.226;2023-08-20T00:22:37;23.90;87.50
360;DHT22;168;48.872;9.226;2023-08-20T00:25:10;24.00;87.40
360;DHT22;168;48.872;9.226;2023-08-20T00:27:42;24.00;87.60
360;DHT22;168;48.872;9.226;2023-08-20T00:30:13;24.00;87.70
360;DHT22;168;48.872;9.226;2023-08-20T00:32:44;24.00;87.80
360;DHT22;168;48.872;9.226;2023-08-20T00:35:16;24.00;87.80
360;DHT22;168;48.872;9.226;2023-08-20T00:37:49;24.00;88.00
360;DHT22;168;48.872;9.226;2023-08-20T00:40:24;24.10;88.10
360;DHT22;168;48.872;9.226;2023-08-20T00:42:57;24.10;88.30
360;DHT22;168;48.872;9.226;2023-08-20T00:45:31;24.10;88.20
360;DHT22;168;48.872;9.226;2023-08-20T00:48:05;24.10;87.90
360;DHT22;168;48.872;9.226;2023-08-20T00:50:36;24.10;87.90
360;DHT22;168;48.872;9.226;2023-08-20T00:53:08;24.10;87.90
360;DHT22;168;48.872;9.226;2023-08-20T00:55:43;24.10;87.80
360;DHT22;168;48.872;9.226;2023-08-20T00:58:12;24.10;87.80
360;DHT22;168;48.872;9.226;2023-08-20T01:00:41;24.10;88.00
360;DHT22;168;48.872;9.226;2023-08-20T01:03:10;24.10;88.00
360;DHT22;168;48.872;9.226;2023-08-20T01:05:46;24.10;88.10
360;DHT22;168;48.872;9.226;2023-08-20T01:08:25;24.10;88.10
360;DHT22;168;48.872;9.226;2023-08-20T01:11:03;24.10;87.90
360;DHT22;168;48.872;9.226;2023-08-20T01:13:34;24.10;87.90
360;DHT22;168;48.872;9.226;2023-08-20T01:16:03;24.10;88.00
360;DHT22;168;48.872;9.226;2023-08-20T01:18:32;24.00;87.70
360;DHT22;168;48.872;9.226;2023-08-20T01:21:04;24.00;87.70
360;DHT22;168;48.872;9.226;2023-08-20T01:24:01;24.00;87.60
360;DHT22;168;48.872;9.226;2023-08-20T01:26:54;24.00;87.70
360;DHT22;168;48.872;9.226;2023-08-20T01:29:27;24.00;87.50
360;DHT22;168;48.872;9.226;2023-08-20T01:31:57;24.00;87.30
360;DHT22;168;48.872;9.226;2023-08-20T01:34:25;24.00;87.50
360;DHT22;168;48.872;9.226;2023-08-20T01:36:54;23.90;87.70
360;DHT22;168;48.872;9.226;2023-08-20T01:39:22;23.90;87.80
360;DHT22;168;48.872;9.226;2023-08-20T01:41:51;23.90;87.90
360;DHT22;168;48.872;9.226;2023-08-20T01:44:18;23.90;87.90
360;DHT22;168;48.872;9.226;2023-08-20T01:46:48;23.90;88.00
360;DHT22;168;48.872;9.226;2023-08-20T01:49:16;23.90;87.80
360;DHT22;168;48.872;9.226;2023-08-20T01:51:44;23.80;87.80
360;DHT22;168;48.872;9.226;2023-08-20T01:54:12;23.80;87.70
360;DHT22;168;48.872;9.226;2023-08-20T01:56:40;23.80;87.80
360;DHT22;168;48.872;9.226;2023-08-20T01:59:08;23.70;87.70
360;DHT22;168;48.872;9.226;2023-08-20T02:01:36;23.70;87.30
360;DHT22;168;48.872;9.226;2023-08-20T02:04:05;23.70;87.20
360;DHT22;168;48.872;9.226;2023-08-20T02:06:32;23.60;87.10
360;DHT22;168;48.872;9.226;2023-08-20T02:09:00;23.60;86.90
360;DHT22;168;48.872;9.226;2023-08-20T02:11:27;23.50;86.60
360;DHT22;168;48.872;9.226;2023-08-20T02:13:55;23.50;86.20
360;DHT22;168;48.872;9.226;2023-08-20T02:16:23;23.40;86.00
360;DHT22;168;48.872;9.226;2023-08-20T02:18:51;23.40;85.70
360;DHT22;168;48.872;9.226;2023-08-20T02:21:20;23.40;85.40
360;DHT22;168;48.872;9.226;2023-08-20T02:23:47;23.30;85.20
360;DHT22;168;48.872;9.226;2023-08-20T02:26:14;23.30;85.30
360;DHT22;168;48.872;9.226;2023-08-20T02:28:42;23.30;85.00
360;DHT22;168;48.872;9.226;2023-08-20T02:31:09;23.20;84.90
360;DHT22;168;48.872;9.226;2023-08-20T02:33:37;23.20;84.70
360;DHT22;168;48.872;9.226;2023-08-20T02:36:05;23.20;84.40
360;DHT22;168;48.872;9.226;2023-08-20T02:38:34;23.10;84.00
360;DHT22;168;48.872;9.226;2023-08-20T02:41:01;23.10;84.10
360;DHT22;168;48.872;9.226;2023-08-20T02:43:29;23.10;83.90
360;DHT22;168;48.872;9.226;2023-08-20T02:45:57;23.10;83.80
360;DHT22;168;48.872;9.226;2023-08-20T02:48:24;23.10;83.70
360;DHT22;168;48.872;9.226;2023-08-20T02:50:53;23.00;83.40
360;DHT22;168;48.872;9.226;2023-08-20T02:53:21;23.00;83.20
360;DHT22;168;48.872;9.226;2023-08-20T02:55:50;23.00;83.00
360;DHT22;168;48.872;9.226;2023-08-20T02:58:18;22.90;82.80
360;DHT22;168;48.872;9.226;2023-08-20T03:00:45;22.90;82.50
360;DHT22;168;48.872;9.226;2023-08-20T03:03:12;22.90;82.30
360;DHT22;168;48.872;9.226;2023-08-20T03:05:40;22.90;82.00
360;DHT22;168;48.872;9.226;2023-08-20T03:08:10;22.80;82.00
360;DHT22;168;48.872;9.226;2023-08-20T03:10:42;22.80;81.60
360;DHT22;168;48.872;9.226;2023-08-20T03:13:11;22.80;81.40
360;DHT22;168;48.872;9.226;2023-08-20T03:15:38;22.70;81.20
360;DHT22;168;48.872;9.226;2023-08-20T03:18:06;22.70;81.00
360;DHT22;168;48.872;9.226;2023-08-20T03:20:34;22.60;80.80
360;DHT22;168;48.872;9.226;2023-08-20T03:23:01;22.60;80.70
360;DHT22;168;48.872;9.226;2023-08-20T03:25:28;22.60;80.60
360;DHT22;168;48.872;9.226;2023-08-20T03:27:56;22.50;80.20
360;DHT22;168;48.872;9.226;2023-08-20T03:30:25;22.50;79.90
360;DHT22;168;48.872;9.226;2023-08-20T03:32:53;22.50;79.70
360;DHT22;168;48.872;9.226;2023-08-20T03:35:21;22.50;79.50
360;DHT22;168;48.872;9.226;2023-08-20T03:37:48;22.40;79.10
360;DHT22;168;48.872;9.226;2023-08-20T03:40:17;22.40;79.00
360;DHT22;168;48.872;9.226;2023-08-20T03:42:45;22.40;78.60
360;DHT22;168;48.872;9.226;2023-08-20T03:45:13;22.40;78.30
360;DHT22;168;48.872;9.226;2023-08-20T03:47:42;22.30;78.20
360;DHT22;168;48.872;9.226;2023-08-20T03:50:10;22.30;78.00
360;DHT22;168;48.872;9.226;2023-08-20T03:52:39;22.30;77.90
360;DHT22;168;48.872;9.226;2023-08-20T03:55:07;22.30;77.90
360;DHT22;168;48.872;9.226;2023-08-20T03:57:35;22.30;77.70
360;DHT22;168;48.872;9.226;2023-08-20T04:00:03;22.30;77.60
360;DHT22;168;48.872;9.226;2023-08-20T04:02:31;22.30;77.60
360;DHT22;168;48.872;9.226;2023-08-20T04:05:00;22.20;77.50
360;DHT22;168;48.872;9.226;2023-08-20T04:07:29;22.20;77.40
360;DHT22;168;48.872;9.226;2023-08-20T04:09:56;22.20;77.40
360;DHT22;168;48.872;9.226;2023-08-20T04:12:24;22.20;77.60
360;DHT22;168;48.872;9.226;2023-08-20T04:14:51;22.20;77.90
360;DHT22;168;48.872;9.226;2023-08-20T04:17:19;22.20;77.90
360;DHT22;168;48.872;9.226;2023-08-20T04:19:46;22.20;77.90
360;DHT22;168;48.872;9.226;2023-08-20T04:22:15;22.20;77.70
360;DHT22;168;48.872;9.226;2023-08-20T04:24:42;22.10;77.50
360;DHT22;168;48.872;9.226;2023-08-20T04:27:10;22.10;77.70
360;DHT22;168;48.872;9.226;2023-08-20T04:29:37;22.10;77.80
360;DHT22;168;48.872;9.226;2023-08-20T04:32:05;22.10;77.60
360;DHT22;168;48.872;9.226;2023-08-20T04:34:32;22.10;77.60
360;DHT22;168;48.872;9.226;2023-08-20T04:37:00;22.10;77.60
360;DHT22;168;48.872;9.226;2023-08-20T04:39:29;22.10;77.40
360;DHT22;168;48.872;9.226;2023-08-20T04:41:56;22.10;77.20
360;DHT22;168;48.872;9.226;2023-08-20T04:44:26;22.10;77.10
360;DHT22;168;48.872;9.226;2023-08-20T04:46:53;22.20;77.20
360;DHT22;168;48.872;9.226;2023-08-20T04:49:21;22.20;77.50
360;DHT22;168;48.872;9.226;2023-08-20T04:51:48;22.20;77.80
360;DHT22;168;48.872;9.226;2023-08-20T04:54:16;22.20;77.90
360;DHT22;168;48.872;9.226;2023-08-20T04:56:45;22.20;77.80
360;DHT22;168;48.872;9.226;2023-08-20T04:59:13;22.20;77.80
360;DHT22;168;48.872;9.226;2023-08-20T05:01:41;22.20;77.90
360;DHT22;168;48.872;9.226;2023-08-20T05:04:08;22.20;78.10
360;DHT22;168;48.872;9.226;2023-08-20T05:06:36;22.30;78.20
360;DHT22;168;48.872;9.226;2023-08-20T05:09:03;22.30;78.40
360;DHT22;168;48.872;9.226;2023-08-20T05:11:31;22.30;78.60
360;DHT22;168;48.872;9.226;2023-08-20T05:14:01;22.40;78.90
360;DHT22;168;48.872;9.226;2023-08-20T05:16:29;22.40;79.00
360;DHT22;168;48.872;9.226;2023-08-20T05:18:57;22.40;79.20
360;DHT22;168;48.872;9.226;2023-08-20T05:21:25;22.50;79.40
360;DHT22;168;48.872;9.226;2023-08-20T05:23:52;22.50;79.50
360;DHT22;168;48.872;9.226;2023-08-20T05:26:21;22.60;79.90
360;DHT22;168;48.872;9.226;2023-08-20T05:28:49;22.60;80.40
360;DHT22;168;48.872;9.226;2023-08-20T05:31:18;22.70;80.90
360;DHT22;168;48.872;9.226;2023-08-20T05:33:46;22.80;81.20
360;DHT22;168;48.872;9.226;2023-08-20T05:36:14;22.80;81.90
360;DHT22;168;48.872;9.226;2023-08-20T05:38:41;22.90;82.40
360;DHT22;168;48.872;9.226;2023-08-20T05:41:09;22.90;83.10
360;DHT22;168;48.872;9.226;2023-08-20T05:43:37;23.00;83.40
360;DHT22;168;48.872;9.226;2023-08-20T05:46:04;23.10;83.70
360;DHT22;168;48.872;9.226;2023-08-20T05:48:33;23.10;84.00
360;DHT22;168;48.872;9.226;2023-08-20T05:51:01;23.20;84.40
360;DHT22;168;48.872;9.226;2023-08-20T05:53:28;23.30;85.20
360;DHT22;168;48.872;9.226;2023-08-20T05:55:58;23.30;85.80
360;DHT22;168;48.872;9.226;2023-08-20T05:58:28;23.40;85.90
360;DHT22;168;48.872;9.226;2023-08-20T06:00:57;23.50;85.90
360;DHT22;168;48.872;9.226;2023-08-20T06:03:25;23.50;86.00
360;DHT22;168;48.872;9.226;2023-08-20T06:05:55;23.70;86.20
360;DHT22;168;48.872;9.226;2023-08-20T06:08:23;23.80;86.50
360;DHT22;168;48.872;9.226;2023-08-20T06:10:51;23.90;87.10
360;DHT22;168;48.872;9.226;2023-08-20T06:13:18;24.00;88.00
360;DHT22;168;48.872;9.226;2023-08-20T06:15:47;24.20;88.60
360;DHT22;168;48.872;9.226;2023-08-20T06:18:15;24.30;89.30
360;DHT22;168;48.872;9.226;2023-08-20T06:20:42;24.40;90.10
360;DHT22;168;48.872;9.226;2023-08-20T06:23:11;24.50;90.40
360;DHT22;168;48.872;9.226;2023-08-20T06:25:39;24.60;90.60
360;DHT22;168;48.872;9.226;2023-08-20T06:28:08;24.70;90.80
360;DHT22;168;48.872;9.226;2023-08-20T06:30:37;24.80;91.20
360;DHT22;168;48.872;9.226;2023-08-20T06:33:09;24.90;91.20
360;DHT22;168;48.872;9.226;2023-08-20T06:35:41;24.90;90.70
360;DHT22;168;48.872;9.226;2023-08-20T06:38:12;25.00;90.50
360;DHT22;168;48.872;9.226;2023-08-20T06:40:41;25.10;90.70
360;DHT22;168;48.872;9.226;2023-08-20T06:43:11;25.30;91.00
360;DHT22;168;48.872;9.226;2023-08-20T06:45:39;25.50;91.30
360;DHT22;168;48.872;9.226;2023-08-20T06:48:09;25.70;91.90
360;DHT22;168;48.872;9.226;2023-08-20T06:50:37;25.90;91.70
360;DHT22;168;48.872;9.226;2023-08-20T06:53:05;25.80;91.70
360;DHT22;168;48.872;9.226;2023-08-20T06:55:36;25.80;91.60
360;DHT22;168;48.872;9.226;2023-08-20T06:58:04;25.90;91.50
360;DHT22;168;48.872;9.226;2023-08-20T07:00:32;26.00;91.80
360;DHT22;168;48.872;9.226;2023-08-20T07:03:00;26.20;91.70
360;DHT22;168;48.872;9.226;2023-08-20T07:05:29;26.10;91.70
360;DHT22;168;48.872;9.226;2023-08-20T07:07:59;26.10;91.70
360;DHT22;168;48.872;9.226;2023-08-20T07:10:31;26.10;91.60
360;DHT22;168;48.872;9.226;2023-08-20T07:13:05;26.10;91.70
360;DHT22;168;48.872;9.226;2023-08-20T07:15:36;26.30;91.70
360;DHT22;168;48.872;9.226;2023-08-20T07:18:05;26.30;91.70
360;DHT22;168;48.872;9.226;2023-08-20T07:20:32;26.30;91.70
360;DHT22;168;48.872;9.226;2023-08-20T07:23:01;26.40;91.60
360;DHT22;168;48.872;9.226;2023-08-20T07:25:29;26.40;91.60
360;DHT22;168;48.872;9.226;2023-08-20T07:27:58;26.50;91.60
360;DHT22;168;48.872;9.226;2023-08-20T07:30:30;26.60;91.50
360;DHT22;168;48.872;9.226;2023-08-20T07:32:59;26.70;91.40
360;DHT22;168;48.872;9.226;2023-08-20T07:35:27;26.80;91.40
360;DHT22;168;48.872;9.226;2023-08-20T07:37:59;26.80;91.30
360;DHT22;168;48.872;9.226;2023-08-20T07:40:31;26.70;91.40
360;DHT22;168;48.872;9.226;2023-08-20T07:43:02;26.60;91.50
360;DHT22;168;48.872;9.226;2023-08-20T07:45:35;26.60;91.50
360;DHT22;168;48.872;9.226;2023-08-20T07:48:05;26.80;91.50
360;DHT22;168;48.872;9.226;2023-08-20T07:50:35;27.00;91.40
360;DHT22;168;48.872;9.226;2023-08-20T07:53:04;27.10;91.20
360;DHT22;168;48.872;9.226;2023-08-20T07:55:35;27.10;91.30
360;DHT22;168;48.872;9.226;2023-08-20T07:58:05;27.10;91.20
360;DHT22;168;48.872;9.226;2023-08-20T08:00:38;27.20;91.00
360;DHT22;168;48.872;9.226;2023-08-20T08:03:10;27.30;91.00
360;DHT22;168;48.872;9.226;2023-08-20T08:05:46;27.30;90.90
360;DHT22;168;48.872;9.226;2023-08-20T08:08:17;27.20;91.10
360;DHT22;168;48.872;9.226;2023-08-20T08:10:49;27.20;91.30
360;DHT22;168;48.872;9.226;2023-08-20T08:13:20;27.30;91.00
360;DHT22;168;48.872;9.226;2023-08-20T08:15:50;27.30;90.90
360;DHT22;168;48.872;9.226;2023-08-20T08:18:19;27.10;91.20
360;DHT22;168;48.872;9.226;2023-08-20T08:20:48;27.20;91.30
360;DHT22;168;48.872;9.226;2023-08-20T08:23:17;27.30;91.00
360;DHT22;168;48.872;9.226;2023-08-20T08:25:45;27.30;90.90
360;DHT22;168;48.872;9.226;2023-08-20T08:28:14;27.20;91.00
360;DHT22;168;48.872;9.226;2023-08-20T08:30:42;27.00;91.30
360;DHT22;168;48.872;9.226;2023-08-20T08:33:13;27.20;91.10
360;DHT22;168;48.872;9.226;2023-08-20T08:35:42;27.20;91.10
360;DHT22;168;48.872;9.226;2023-08-20T08:38:12;27.30;91.00
360;DHT22;168;48.872;9.226;2023-08-20T08:40:42;27.30;91.10
360;DHT22;168;48.872;9.226;2023-08-20T08:43:11;27.40;91.00
360;DHT22;168;48.872;9.226;2023-08-20T08:45:46;27.50;91.00
360;DHT22;168;48.872;9.226;2023-08-20T08:48:22;27.60;90.70
360;DHT22;168;48.872;9.226;2023-08-20T08:50:53;27.90;90.10
360;DHT22;168;48.872;9.226;2023-08-20T08:53:26;28.20;89.30
360;DHT22;168;48.872;9.226;2023-08-20T08:55:56;28.20;89.30
360;DHT22;168;48.872;9.226;2023-08-20T08:58:25;28.30;89.00
360;DHT22;168;48.872;9.226;2023-08-20T09:00:55;28.30;88.60
360;DHT22;168;48.872;9.226;2023-08-20T09:03:29;28.20;89.40
360;DHT22;168;48.872;9.226;2023-08-20T09:06:01;28.40;89.20
360;DHT22;168;48.872;9.226;2023-08-20T09:08:32;28.60;88.40
360;DHT22;168;48.872;9.226;2023-08-20T09:11:03;28.60;88.40
360;DHT22;168;48.872;9.226;2023-08-20T09:13:35;28.60;88.50
360;DHT22;168;48.872;9.226;2023-08-20T09:16:06;28.70;87.90
360;DHT22;168;48.872;9.226;2023-08-20T09:18:40;28.70;88.00
360;DHT22;168;48.872;9.226;2023-08-20T09:21:09;28.70;88.00
360;DHT22;168;48.872;9.226;2023-08-20T09:23:39;28.80;87.50
360;DHT22;168;48.872;9.226;2023-08-20T09:26:09;28.90;87.00
360;DHT22;168;48.872;9.226;2023-08-20T09:28:44;28.90;86.80
360;DHT22;168;48.872;9.226;2023-08-20T09:31:13;28.90;86.60
360;DHT22;168;48.872;9.226;2023-08-20T09:33:52;28.90;86.40
360;DHT22;168;48.872;9.226;2023-08-20T09:36:31;29.00;86.00
360;DHT22;168;48.872;9.226;2023-08-20T09:39:03;29.10;85.20
360;DHT22;168;48.872;9.226;2023-08-20T09:41:33;29.20;84.10
360;DHT22;168;48.872;9.226;2023-08-20T09:44:06;29.20;84.30
360;DHT22;168;48.872;9.226;2023-08-20T09:46:36;29.20;84.20
360;DHT22;168;48.872;9.226;2023-08-20T09:49:10;29.20;84.60
360;DHT22;168;48.872;9.226;2023-08-20T09:51:45;29.40;84.00
360;DHT22;168;48.872;9.226;2023-08-20T09:54:21;29.50;83.90
360;DHT22;168;48.872;9.226;2023-08-20T09:56:56;29.60;83.60
360;DHT22;168;48.872;9.226;2023-08-20T09:59:30;29.70;82.60
360;DHT22;168;48.872;9.226;2023-08-20T10:02:00;29.70;83.10
360;DHT22;168;48.872;9.226;2023-08-20T10:04:36;29.80;82.50
360;DHT22;168;48.872;9.226;2023-08-20T10:07:08;29.80;81.80
360;DHT22;168;48.872;9.226;2023-08-20T10:09:41;29.90;81.70
360;DHT22;168;48.872;9.226;2023-08-20T10:12:14;30.10;80.00
360;DHT22;168;48.872;9.226;2023-08-20T10:14:46;30.20;76.90
360;DHT22;168;48.872;9.226;2023-08-20T10:17:19;30.20;79.30
360;DHT22;168;48.872;9.226;2023-08-20T10:19:52;30.20;79.80
360;DHT22;168;48.872;9.226;2023-08-20T10:22:33;30.20;80.00
360;DHT22;168;48.872;9.226;2023-08-20T10:25:08;30.20;78.60
360;DHT22;168;48.872;9.226;2023-08-20T10:27:40;30.30;79.20
360;DHT22;168;48.872;9.226;2023-08-20T10:30:18;30.40;77.60
360;DHT22;168;48.872;9.226;2023-08-20T10:32:50;30.60;75.80
360;DHT22;168;48.872;9.226;2023-08-20T10:35:27;30.70;76.20
360;DHT22;168;48.872;9.226;2023-08-20T10:38:06;30.80;77.00
360;DHT22;168;48.872;9.226;2023-08-20T10:40:53;30.90;77.20
360;DHT22;168;48.872;9.226;2023-08-20T10:43:31;31.00;77.90
360;DHT22;168;48.872;9.226;2023-08-20T10:46:16;30.90;76.70
360;DHT22;168;48.872;9.226;2023-08-20T10:48:49;30.90;77.50
360;DHT22;168;48.872;9.226;2023-08-20T10:51:27;31.10;74.80
360;DHT22;168;48.872;9.226;2023-08-20T10:54:06;31.00;75.50
360;DHT22;168;48.872;9.226;2023-08-20T10:56:44;31.00;73.60
360;DHT22;168;48.872;9.226;2023-08-20T10:59:17;31.00;74.90
360;DHT22;168;48.872;9.226;2023-08-20T11:01:49;31.20;72.30
360;DHT22;168;48.872;9.226;2023-08-20T11:04:21;31.10;73.60
360;DHT22;168;48.872;9.226;2023-08-20T11:07:02;31.00;74.30
360;DHT22;168;48.872;9.226;2023-08-20T11:09:34;31.00;74.60
360;DHT22;168;48.872;9.226;2023-08-20T11:12:08;31.00;75.10
360;DHT22;168;48.872;9.226;2023-08-20T11:14:40;31.10;75.80
360;DHT22;168;48.872;9.226;2023-08-20T11:17:15;31.20;75.60
360;DHT22;168;48.872;9.226;2023-08-20T11:19:51;31.40;73.50
360;DHT22;168;48.872;9.226;2023-08-20T11:22:31;31.50;73.50
360;DHT22;168;48.872;9.226;2023-08-20T11:25:03;31.80;71.50
360;DHT22;168;48.872;9.226;2023-08-20T11:27:40;31.80;72.40
360;DHT22;168;48.872;9.226;2023-08-20T11:30:16;31.80;73.20
360;DHT22;168;48.872;9.226;2023-08-20T11:32:49;31.90;73.80
360;DHT22;168;48.872;9.226;2023-08-20T11:35:23;31.90;72.70
360;DHT22;168;48.872;9.226;2023-08-20T11:37:57;32.10;71.50
360;DHT22;168;48.872;9.226;2023-08-20T11:40:29;32.10;70.60
360;DHT22;168;48.872;9.226;2023-08-20T11:43:01;32.00;70.10
360;DHT22;168;48.872;9.226;2023-08-20T11:45:45;31.90;70.60
360;DHT22;168;48.872;9.226;2023-08-20T11:48:19;31.80;69.50
360;DHT22;168;48.872;9.226;2023-08-20T11:50:51;31.90;69.70
360;DHT22;168;48.872;9.226;2023-08-20T11:53:29;32.00;68.10
360;DHT22;168;48.872;9.226;2023-08-20T11:56:01;32.00;67.90
360;DHT22;168;48.872;9.226;2023-08-20T11:58:32;32.00;69.70
360;DHT22;168;48.872;9.226;2023-08-20T12:01:08;32.10;71.70
360;DHT22;168;48.872;9.226;2023-08-20T12:03:45;32.40;69.50
360;DHT22;168;48.872;9.226;2023-08-20T12:06:20;32.60;69.00
360;DHT22;168;48.872;9.226;2023-08-20T12:09:00;32.70;67.10
360;DHT22;168;48.872;9.226;2023-08-20T12:11:31;32.70;67.00
360;DHT22;168;48.872;9.226;2023-08-20T12:14:02;32.70;66.50
360;DHT22;168;48.872;9.226;2023-08-20T12:16:31;32.80;65.30
360;DHT22;168;48.872;9.226;2023-08-20T12:19:00;32.80;65.20
360;DHT22;168;48.872;9.226;2023-08-20T12:21:29;32.80;64.50
360;DHT22;168;48.872;9.226;2023-08-20T12:24:01;32.60;65.50
360;DHT22;168;48.872;9.226;2023-08-20T12:26:31;32.70;67.20
360;DHT22;168;48.872;9.226;2023-08-20T12:29:01;32.80;66.20
360;DHT22;168;48.872;9.226;2023-08-20T12:31:31;32.80;65.90
360;DHT22;168;48.872;9.226;2023-08-20T12:33:59;32.70;67.00
360;DHT22;168;48.872;9.226;2023-08-20T12:36:29;32.70;66.50
360;DHT22;168;48.872;9.226;2023-08-20T12:39:00;32.90;67.00
360;DHT22;168;48.872;9.226;2023-08-20T12:41:31;33.00;66.90
360;DHT22;168;48.872;9.226;2023-08-20T12:44:54;33.20;67.30
360;DHT22;168;48.872;9.226;2023-08-20T12:47:27;33.40;66.50
360;DHT22;168;48.872;9.226;2023-08-20T12:49:57;33.50;68.10
360;DHT22;168;48.872;9.226;2023-08-20T12:52:33;33.60;67.50
360;DHT22;168;48.872;9.226;2023-08-20T12:55:09;33.80;64.70
360;DHT22;168;48.872;9.226;2023-08-20T12:57:52;33.90;64.40
360;DHT22;168;48.872;9.226;2023-08-20T13:00:39;33.90;64.90
360;DHT22;168;48.872;9.226;2023-08-20T13:06:14;33.70;65.30
360;DHT22;168;48.872;9.226;2023-08-20T13:08:54;33.60;67.40
360;DHT22;168;48.872;9.226;2023-08-20T13:11:34;33.70;65.90
360;DHT22;168;48.872;9.226;2023-08-20T13:14:17;33.80;65.80
360;DHT22;168;48.872;9.226;2023-08-20T13:17:00;34.10;66.00
360;DHT22;168;48.872;9.226;2023-08-20T13:19:42;34.30;65.50
360;DHT22;168;48.872;9.226;2023-08-20T13:22:13;34.40;64.00
360;DHT22;168;48.872;9.226;2023-08-20T13:24:57;34.30;65.10
360;DHT22;168;48.872;9.226;2023-08-20T13:27:32;34.20;64.70
360;DHT22;168;48.872;9.226;2023-08-20T13:30:10;34.00;64.30
360;DHT22;168;48.872;9.226;2023-08-20T13:32:41;33.80;64.90
360;DHT22;168;48.872;9.226;2023-08-20T13:35:14;33.80;65.00
360;DHT22;168;48.872;9.226;2023-08-20T13:38:03;33.80;66.30
360;DHT22;168;48.872;9.226;2023-08-20T13:40:47;33.90;66.70
360;DHT22;168;48.872;9.226;2023-08-20T13:43:21;34.10;66.20
360;DHT22;168;48.872;9.226;2023-08-20T13:45:51;34.20;64.20
360;DHT22;168;48.872;9.226;2023-08-20T13:48:26;34.30;63.70
360;DHT22;168;48.872;9.226;2023-08-20T13:50:56;34.30;63.90
360;DHT22;168;48.872;9.226;2023-08-20T13:53:27;34.30;63.30
360;DHT22;168;48.872;9.226;2023-08-20T13:55:58;34.30;63.50
360;DHT22;168;48.872;9.226;2023-08-20T13:58:32;34.40;63.40
360;DHT22;168;48.872;9.226;2023-08-20T14:01:02;34.40;63.60
360;DHT22;168;48.872;9.226;2023-08-20T14:03:37;34.30;63.80
360;DHT22;168;48.872;9.226;2023-08-20T14:06:19;34.40;63.90
360;DHT22;168;48.872;9.226;2023-08-20T14:08:49;34.50;63.90
360;DHT22;168;48.872;9.226;2023-08-20T14:11:20;34.50;64.10
360;DHT22;168;48.872;9.226;2023-08-20T14:13:54;34.60;63.40
360;DHT22;168;48.872;9.226;2023-08-20T14:16:24;34.80;64.70
360;DHT22;168;48.872;9.226;2023-08-20T14:18:55;34.90;63.70
360;DHT22;168;48.872;9.226;2023-08-20T14:21:27;34.90;63.70
360;DHT22;168;48.872;9.226;2023-08-20T14:24:06;34.90;63.30
360;DHT22;168;48.872;9.226;2023-08-20T14:26:37;34.80;62.10
360;DHT22;168;48.872;9.226;2023-08-20T14:29:14;34.70;63.10
360;DHT22;168;48.872;9.226;2023-08-20T14:31:45;34.50;62.90
360;DHT22;168;48.872;9.226;2023-08-20T14:34:16;34.40;63.20
360;DHT22;168;48.872;9.226;2023-08-20T14:36:49;34.30;62.90
360;DHT22;168;48.872;9.226;2023-08-20T14:39:19;34.40;62.90
360;DHT22;168;48.872;9.226;2023-08-20T14:41:51;34.70;61.90
360;DHT22;168;48.872;9.226;2023-08-20T14:44:26;35.00;62.20
360;DHT22;168;48.872;9.226;2023-08-20T14:46:58;35.10;60.60
360;DHT22;168;48.872;9.226;2023-08-20T14:49:29;35.10;59.90
360;DHT22;168;48.872;9.226;2023-08-20T14:51:59;35.20;60.20
360;DHT22;168;48.872;9.226;2023-08-20T14:54:29;35.30;60.10
360;DHT22;168;48.872;9.226;2023-08-20T14:57:03;35.60;59.20
360;DHT22;168;48.872;9.226;2023-08-20T14:59:38;35.70;58.20
360;DHT22;168;48.872;9.226;2023-08-20T15:02:09;35.60;57.70
360;DHT22;168;48.872;9.226;2023-08-20T15:04:39;35.30;57.80
360;DHT22;168;48.872;9.226;2023-08-20T15:07:10;35.30;57.90
360;DHT22;168;48.872;9.226;2023-08-20T15:09:41;35.30;58.60
360;DHT22;168;48.872;9.226;2023-08-20T15:12:14;35.30;58.80
360;DHT22;168;48.872;9.226;2023-08-20T15:14:47;35.40;57.10
360;DHT22;168;48.872;9.226;2023-08-20T15:17:19;35.40;56.90
360;DHT22;168;48.872;9.226;2023-08-20T15:19:50;35.30;57.00
360;DHT22;168;48.872;9.226;2023-08-20T15:22:21;35.20;57.30
360;DHT22;168;48.872;9.226;2023-08-20T15:24:52;35.00;57.70
360;DHT22;168;48.872;9.226;2023-08-20T15:27:24;34.90;58.10
360;DHT22;168;48.872;9.226;2023-08-20T15:29:56;34.90;58.90
360;DHT22;168;48.872;9.226;2023-08-20T15:32:29;35.00;58.30
360;DHT22;168;48.872;9.226;2023-08-20T15:34:59;35.10;57.80
360;DHT22;168;48.872;9.226;2023-08-20T15:37:31;35.10;57.90
360;DHT22;168;48.872;9.226;2023-08-20T15:40:01;35.10;58.60
360;DHT22;168;48.872;9.226;2023-08-20T15:42:37;35.10;58.50
360;DHT22;168;48.872;9.226;2023-08-20T15:45:10;35.00;58.50
360;DHT22;168;48.872;9.226;2023-08-20T15:47:40;34.80;58.90
360;DHT22;168;48.872;9.226;2023-08-20T15:50:10;34.80;59.10
360;DHT22;168;48.872;9.226;2023-08-20T15:52:42;34.70;58.90
360;DHT22;168;48.872;9.226;2023-08-20T15:55:14;34.80;59.70
360;DHT22;168;48.872;9.226;2023-08-20T15:57:46;34.90;58.80
360;DHT22;168;48.872;9.226;2023-08-20T16:00:19;35.00;58.60
360;DHT22;168;48.872;9.226;2023-08-20T16:02:51;35.30;57.90
360;DHT22;168;48.872;9.226;2023-08-20T16:05:22;35.60;57.80
360;DHT22;168;48.872;9.226;2023-08-20T16:07:51;35.80;56.60
360;DHT22;168;48.872;9.226;2023-08-20T16:10:20;35.90;57.00
360;DHT22;168;48.872;9.226;2023-08-20T16:12:50;36.00;56.50
360;DHT22;168;48.872;9.226;2023-08-20T16:15:23;36.00;56.10
360;DHT22;168;48.872;9.226;2023-08-20T16:17:54;36.10;56.10
360;DHT22;168;48.872;9.226;2023-08-20T16:20:25;36.10;55.90
360;DHT22;168;48.872;9.226;2023-08-20T16:22:57;36.10;56.40
360;DHT22;168;48.872;9.226;2023-08-20T16:25:28;36.30;56.20
360;DHT22;168;48.872;9.226;2023-08-20T16:28:03;36.20;56.70
360;DHT22;168;48.872;9.226;2023-08-20T16:30:37;36.10;56.50
360;DHT22;168;48.872;9.226;2023-08-20T16:33:11;36.00;57.20
360;DHT22;168;48.872;9.226;2023-08-20T16:35:46;35.90;57.40
360;DHT22;168;48.872;9.226;2023-08-20T16:38:17;35.90;57.20
360;DHT22;168;48.872;9.226;2023-08-20T16:40:53;35.90;57.40
360;DHT22;168;48.872;9.226;2023-08-20T16:43:24;36.00;57.40
360;DHT22;168;48.872;9.226;2023-08-20T16:45:58;36.10;56.70
360;DHT22;168;48.872;9.226;2023-08-20T16:48:30;35.80;57.20
360;DHT22;168;48.872;9.226;2023-08-20T16:51:02;35.70;57.60
360;DHT22;168;48.872;9.226;2023-08-20T16:53:33;35.50;57.70
360;DHT22;168;48.872;9.226;2023-08-20T16:56:03;35.20;58.50
360;DHT22;168;48.872;9.226;2023-08-20T16:58:34;35.00;59.10
360;DHT22;168;48.872;9.226;2023-08-20T17:01:06;34.60;59.70
360;DHT22;168;48.872;9.226;2023-08-20T17:03:38;34.40;60.50
360;DHT22;168;48.872;9.226;2023-08-20T17:06:08;34.20;60.90